createdAt,value
2023-05-21T00:00:31.957Z,12.00
2023-05-21T00:04:33.870Z,12.18
2023-05-21T00:08:35.605Z,11.48
2023-05-21T00:12:37.316Z,12.23
2023-05-21T00:16:38.959Z,12.10
2023-05-21T00:20:41.627Z,12.68
2023-05-21T00:24:45.361Z,12.98
2023-05-21T00:28:47.010Z,13.20
2023-05-21T00:32:48.664Z,12.63
2023-05-21T00:36:50.262Z,12.73
2023-05-21T00:40:51.748Z,12.57
2023-05-21T00:44:56.962Z,13.43
2023-05-21T00:48:59.016Z,12.27
2023-05-21T00:53:00.783Z,12.68
2023-05-21T00:57:04.029Z,13.25
2023-05-21T01:01:06.867Z,13.43
2023-05-21T01:05:08.967Z,13.90
2023-05-21T01:09:10.532Z,13.98
2023-05-21T01:13:12.382Z,13.27
2023-05-21T01:17:14.639Z,13.95
2023-05-21T01:21:17.325Z,14.38
2023-05-21T01:27:02.346Z,13.68
2023-05-21T01:31:26.434Z,14.15
2023-05-21T01:35:32.857Z,13.05
2023-05-21T01:39:38.614Z,13.75
2023-05-21T01:43:43.862Z,14.63
2023-05-21T01:47:48.240Z,15.45
2023-05-21T01:51:49.978Z,15.52
2023-05-21T01:55:51.872Z,15.00
2023-05-21T01:59:53.706Z,14.70
2023-05-21T02:03:55.573Z,15.10
2023-05-21T02:07:57.214Z,15.80
2023-05-21T02:11:58.784Z,14.15
2023-05-21T02:16:01.570Z,15.85
2023-05-21T02:20:22.682Z,16.38
2023-05-21T02:24:24.480Z,16.50
2023-05-21T02:28:25.977Z,16.05
2023-05-21T02:32:27.540Z,14.68
2023-05-21T02:36:33.215Z,15.82
2023-05-21T02:40:34.884Z,15.32
2023-05-21T02:44:36.475Z,16.25
2023-05-21T02:48:37.998Z,15.18
2023-05-21T02:52:39.544Z,15.20
2023-05-21T02:56:41.431Z,15.85
2023-05-21T03:00:42.948Z,17.25
2023-05-21T03:04:47.824Z,16.33
2023-05-21T03:08:49.395Z,16.73
2023-05-21T03:12:50.979Z,17.42
2023-05-21T03:16:52.565Z,19.77
2023-05-21T03:20:54.154Z,17.35
2023-05-21T03:24:55.891Z,18.85
2023-05-21T03:28:57.546Z,17.52
2023-05-21T03:32:59.982Z,16.45
2023-05-21T03:37:01.560Z,17.75
2023-05-21T03:41:03.060Z,18.48
2023-05-21T03:45:04.943Z,17.33
2023-05-21T03:49:06.585Z,18.73
2023-05-21T03:53:10.706Z,18.20
2023-05-21T03:57:12.230Z,17.35
2023-05-21T04:01:13.727Z,18.33
2023-05-21T04:05:15.195Z,18.35
2023-05-21T04:09:16.852Z,19.50
2023-05-21T04:13:18.438Z,19.08
2023-05-21T04:17:20.788Z,18.10
2023-05-21T04:21:22.559Z,19.60
2023-05-21T04:25:25.316Z,20.02
2023-05-21T04:29:30.206Z,18.40
2023-05-21T04:33:31.713Z,18.60
2023-05-21T04:37:35.022Z,19.58
2023-05-21T04:41:36.737Z,18.42
2023-05-21T04:45:38.460Z,18.25
2023-05-21T04:49:40.375Z,19.13
2023-05-21T04:53:42.504Z,19.35
2023-05-21T04:57:44.020Z,19.23
2023-05-21T05:01:45.730Z,19.65
2023-05-21T05:05:47.591Z,18.10
2023-05-21T05:09:49.248Z,18.17
2023-05-21T05:13:52.243Z,18.13
2023-05-21T05:17:54.605Z,18.10
2023-05-21T05:21:56.268Z,17.83
2023-05-21T05:25:57.714Z,18.38
2023-05-21T05:29:59.199Z,19.50
2023-05-21T05:34:00.821Z,18.00
2023-05-21T05:38:02.326Z,18.70
2023-05-21T05:42:04.151Z,18.25
2023-05-21T05:46:05.628Z,17.42
2023-05-21T05:50:07.518Z,18.05
2023-05-21T05:54:08.977Z,18.48
2023-05-21T05:58:10.446Z,18.48
2023-05-21T06:02:12.066Z,16.98
2023-05-21T06:06:13.656Z,16.30
2023-05-21T06:10:15.340Z,16.48
2023-05-21T06:14:17.130Z,16.10
2023-05-21T06:18:18.632Z,16.67
2023-05-21T06:22:20.101Z,16.33
2023-05-21T06:26:21.919Z,15.50
2023-05-21T06:30:23.383Z,16.35
2023-05-21T06:34:25.479Z,15.95
2023-05-21T06:38:26.992Z,16.67
2023-05-21T06:42:28.440Z,16.55
2023-05-21T06:46:29.942Z,15.98
2023-05-21T06:50:31.495Z,15.40
2023-05-21T06:54:33.014Z,15.50
2023-05-21T06:58:34.603Z,16.15
2023-05-21T07:02:36.540Z,16.20
2023-05-21T07:06:39.128Z,14.73
2023-05-21T07:10:40.830Z,15.80
2023-05-21T07:14:42.257Z,16.65
2023-05-21T07:18:43.750Z,14.57
2023-05-21T07:22:45.368Z,13.70
2023-05-21T07:26:47.051Z,16.00
2023-05-21T07:30:48.611Z,15.05
2023-05-21T07:34:50.828Z,13.30
2023-05-21T07:38:53.105Z,13.90
2023-05-21T07:42:54.632Z,12.85
2023-05-21T07:46:56.227Z,13.05
2023-05-21T07:50:58.727Z,12.60
2023-05-21T07:55:01.581Z,12.57
2023-05-21T07:59:03.181Z,12.30
2023-05-21T08:03:07.565Z,12.27
2023-05-21T08:07:09.842Z,12.05
2023-05-21T08:11:11.472Z,11.52
2023-05-21T08:15:12.976Z,10.98
2023-05-21T08:19:14.641Z,13.00
2023-05-21T08:23:16.173Z,11.65
2023-05-21T08:27:17.648Z,10.82
2023-05-21T08:31:19.270Z,10.25
2023-05-21T08:35:20.950Z,10.43
2023-05-21T08:39:22.485Z,10.50
2023-05-21T08:43:29.141Z,10.55
2023-05-21T08:47:34.329Z,9.52
2023-05-21T08:51:36.030Z,9.35
2023-05-21T08:55:38.875Z,9.32
2023-05-21T08:59:44.131Z,9.55
2023-05-21T09:07:55.377Z,8.02
2023-05-21T09:11:56.892Z,8.23
2023-05-21T09:15:59.232Z,7.93
2023-05-21T09:20:16.629Z,8.65
2023-05-21T09:24:22.511Z,7.93
2023-05-21T09:28:25.038Z,8.40
2023-05-21T09:32:26.520Z,7.97
2023-05-21T09:36:29.604Z,7.72
2023-05-21T09:40:31.332Z,7.70
2023-05-21T09:44:32.997Z,7.07
2023-05-21T09:48:40.781Z,6.65
2023-05-21T09:52:42.415Z,6.30
2023-05-21T09:56:44.121Z,6.05
2023-05-21T10:00:45.908Z,5.65
2023-05-21T10:04:50.279Z,6.40
2023-05-21T10:08:56.641Z,5.75
2023-05-21T10:13:06.708Z,5.05
2023-05-21T10:17:09.321Z,5.13
2023-05-21T10:21:11.011Z,5.22
2023-05-21T10:25:13.195Z,4.88
2023-05-21T10:29:17.434Z,4.80
2023-05-21T10:33:24.157Z,5.05
2023-05-21T10:37:27.583Z,4.05
2023-05-21T10:41:36.052Z,4.95
2023-05-21T10:45:56.894Z,4.43
2023-05-21T10:50:08.589Z,4.68
2023-05-21T10:54:18.946Z,4.60
2023-05-21T10:58:44.128Z,4.20
2023-05-21T11:02:46.894Z,4.00
2023-05-21T11:06:48.836Z,4.10
2023-05-21T11:11:00.546Z,4.30
2023-05-21T11:15:02.275Z,4.47
2023-05-21T11:19:08.731Z,4.20
2023-05-21T11:23:11.388Z,4.38
2023-05-21T11:27:12.999Z,8.98
2023-05-21T11:31:27.847Z,5.57
2023-05-21T11:35:29.379Z,4.65
2023-05-21T11:39:40.204Z,4.47
2023-05-21T11:43:43.686Z,4.13
2023-05-21T11:47:46.872Z,4.43
2023-05-21T11:51:48.662Z,6.50
2023-05-21T11:55:50.906Z,4.47
2023-05-21T11:59:52.596Z,4.75
2023-05-21T12:03:54.160Z,4.18
2023-05-21T12:07:56.437Z,4.82
2023-05-21T12:11:58.108Z,4.53
2023-05-21T12:15:59.812Z,4.05
2023-05-21T12:20:04.998Z,3.75
2023-05-21T12:24:06.703Z,4.53
2023-05-21T12:28:08.910Z,4.55
2023-05-21T12:32:12.731Z,4.97
2023-05-21T12:36:27.238Z,4.45
2023-05-21T12:40:39.712Z,4.32
2023-05-21T12:44:47.903Z,4.63
2023-05-21T12:48:51.559Z,5.57
2023-05-21T12:52:58.351Z,3.72
2023-05-21T12:57:09.667Z,4.40
2023-05-21T13:01:12.389Z,4.38
2023-05-21T13:05:18.358Z,4.03
2023-05-21T13:09:19.885Z,4.28
2023-05-21T13:13:21.358Z,5.00
2023-05-21T13:17:24.679Z,4.63
2023-05-21T13:21:26.294Z,4.63
2023-05-21T13:25:29.134Z,4.15
2023-05-21T13:29:31.286Z,4.55
2023-05-21T13:33:32.904Z,4.80
2023-05-21T13:37:37.857Z,4.22
2023-05-21T13:41:39.384Z,3.83
2023-05-21T13:45:41.015Z,4.45
2023-05-21T13:49:42.722Z,3.83
2023-05-21T13:53:44.210Z,4.18
2023-05-21T13:57:46.259Z,4.30
2023-05-21T14:01:49.834Z,4.00
2023-05-21T14:05:53.650Z,3.88
2023-05-21T14:09:56.037Z,3.72
2023-05-21T14:13:58.483Z,3.83
2023-05-21T14:18:00.082Z,4.75
2023-05-21T14:22:02.092Z,4.97
2023-05-21T14:26:03.683Z,5.25
2023-05-21T14:30:05.728Z,4.18
2023-05-21T14:34:08.679Z,4.57
2023-05-21T14:38:11.113Z,4.40
2023-05-21T14:42:12.895Z,4.78
2023-05-21T14:46:14.368Z,5.38
2023-05-21T14:50:16.532Z,4.80
2023-05-21T14:54:18.046Z,4.57
2023-05-21T14:58:20.004Z,4.45
2023-05-21T15:02:22.382Z,5.03
2023-05-21T15:06:24.515Z,4.30
2023-05-21T15:10:27.482Z,3.97
2023-05-21T15:14:28.974Z,4.03
2023-05-21T15:18:30.536Z,4.05
2023-05-21T15:22:32.674Z,4.72
2023-05-21T15:26:34.125Z,4.88
2023-05-21T15:30:35.749Z,4.22
2023-05-21T15:34:37.409Z,4.40
2023-05-21T15:38:38.980Z,4.88
2023-05-21T15:42:40.698Z,4.22
2023-05-21T15:46:42.178Z,4.47
2023-05-21T15:50:43.679Z,4.35
2023-05-21T15:54:45.539Z,4.25
2023-05-21T15:58:47.035Z,4.30
2023-05-21T16:02:48.645Z,4.95
2023-05-21T16:06:50.319Z,3.65
2023-05-21T16:10:51.852Z,3.50
2023-05-21T16:14:56.053Z,4.13
2023-05-21T16:18:57.622Z,4.13
2023-05-21T16:22:59.134Z,4.07
2023-05-21T16:27:03.092Z,3.55
2023-05-21T16:31:04.928Z,3.85
2023-05-21T16:35:07.190Z,4.15
2023-05-21T16:39:14.862Z,3.65
2023-05-21T16:43:16.749Z,4.00
2023-05-21T16:47:24.329Z,3.35
2023-05-21T16:51:25.909Z,3.77
2023-05-21T16:55:27.401Z,3.53
2023-05-21T16:59:28.860Z,4.00
2023-05-21T17:03:32.376Z,3.60
2023-05-21T17:07:34.299Z,4.20
2023-05-21T17:11:36.075Z,3.50
2023-05-21T17:15:37.942Z,4.15
2023-05-21T17:19:39.754Z,3.85
2023-05-21T17:23:42.790Z,3.60
2023-05-21T17:27:47.517Z,3.80
2023-05-21T17:31:49.298Z,3.13
2023-05-21T17:35:50.959Z,3.58
2023-05-21T17:39:52.509Z,4.57
2023-05-21T17:43:54.305Z,3.70
2023-05-21T17:47:59.651Z,4.85
2023-05-21T17:52:04.387Z,5.13
2023-05-21T17:56:06.859Z,4.03
2023-05-21T18:00:09.032Z,3.80
2023-05-21T18:04:12.266Z,3.53
2023-05-21T18:08:14.316Z,3.92
2023-05-21T18:12:16.483Z,3.78
2023-05-21T18:16:18.494Z,3.78
2023-05-21T18:20:20.015Z,3.60
2023-05-21T18:24:21.537Z,3.65
2023-05-21T18:28:23.089Z,4.47
2023-05-21T18:32:24.927Z,4.97
2023-05-21T18:36:26.717Z,3.53
2023-05-21T18:40:30.606Z,3.53
2023-05-21T18:44:32.708Z,3.15
2023-05-21T18:48:34.197Z,3.53
2023-05-21T18:52:35.671Z,3.45
2023-05-21T18:56:37.222Z,4.70
2023-05-21T19:00:39.726Z,3.78
2023-05-21T19:04:41.553Z,3.35
2023-05-21T19:08:52.533Z,3.60
2023-05-21T19:12:54.147Z,3.38
2023-05-21T19:16:55.808Z,4.03
2023-05-21T19:20:57.562Z,4.00
2023-05-21T19:24:59.364Z,3.30
2023-05-21T19:29:01.060Z,3.30
2023-05-21T19:33:02.677Z,3.80
2023-05-21T19:37:04.514Z,3.65
2023-05-21T19:41:06.078Z,3.72
2023-05-21T19:45:09.576Z,4.00
2023-05-21T19:49:12.582Z,3.58
2023-05-21T19:53:14.052Z,3.63
2023-05-21T19:57:16.467Z,4.97
2023-05-21T20:01:18.692Z,3.63
2023-05-21T20:05:20.481Z,6.18
2023-05-21T20:09:22.065Z,5.55
2023-05-21T20:13:24.216Z,5.55
2023-05-21T20:17:25.700Z,3.92
2023-05-21T20:21:29.559Z,3.88
2023-05-21T20:25:31.063Z,3.78
2023-05-21T20:29:32.733Z,3.85
2023-05-21T20:33:35.161Z,3.90
2023-05-21T20:37:36.733Z,4.40
2023-05-21T20:41:38.681Z,3.90
2023-05-21T20:45:41.754Z,3.65
2023-05-21T20:49:43.777Z,3.75
2023-05-21T20:53:45.310Z,3.72
2023-05-21T20:57:47.238Z,4.00
2023-05-21T21:01:48.798Z,3.88
2023-05-21T21:05:50.646Z,3.92
2023-05-21T21:09:52.146Z,3.58
2023-05-21T21:13:53.715Z,3.75
2023-05-21T21:17:55.305Z,3.78
2023-05-21T21:21:56.925Z,3.58
2023-05-21T21:25:58.474Z,3.67
2023-05-21T21:29:59.975Z,3.63
2023-05-21T21:34:01.555Z,3.38
2023-05-21T21:38:05.140Z,3.85
2023-05-21T21:42:07.048Z,3.50
2023-05-21T21:46:08.773Z,3.55
2023-05-21T21:50:10.668Z,3.42
2023-05-21T21:54:12.291Z,3.75
2023-05-21T21:58:13.829Z,4.28
2023-05-21T22:02:17.822Z,4.00
2023-05-21T22:06:19.400Z,3.60
2023-05-21T22:10:21.223Z,3.53
2023-05-21T22:14:23.273Z,3.47
2023-05-21T22:18:38.841Z,3.60
2023-05-21T22:22:41.536Z,3.42
2023-05-21T22:26:43.633Z,3.70
2023-05-21T22:30:45.137Z,3.60
2023-05-21T22:34:46.753Z,3.38
2023-05-21T22:38:48.173Z,3.70
2023-05-21T22:42:49.675Z,3.65
2023-05-21T22:46:51.908Z,3.45
2023-05-21T22:50:54.391Z,3.97
2023-05-21T22:54:57.822Z,3.88
2023-05-21T22:58:59.541Z,3.53
2023-05-21T23:03:01.361Z,3.90
2023-05-21T23:07:03.060Z,3.53
2023-05-21T23:11:04.604Z,3.60
2023-05-21T23:15:07.481Z,3.55
2023-05-21T23:19:09.223Z,3.67
2023-05-21T23:23:11.270Z,3.35
2023-05-21T23:27:12.765Z,3.55
2023-05-21T23:31:14.384Z,3.85
2023-05-21T23:35:16.214Z,3.70
2023-05-21T23:39:18.357Z,3.63
2023-05-21T23:43:19.897Z,3.75
2023-05-21T23:47:21.394Z,3.40
2023-05-21T23:51:23.026Z,3.28
2023-05-21T23:55:24.521Z,3.47
2023-05-21T23:59:26.039Z,3.17
